sensor_id;sensor_type;location;lat;lon;timestamp;pressure;altitude;pressure_sealevel;temperature;humidity
32131;BME280;18639;50.716;7.086;2022-08-07T00:00:55;101344.53;;;14.60;72.59
32131;BME280;18639;50.716;7.086;2022-08-07T00:03:20;101348.06;;;14.59;72.60
32131;BME280;18639;50.716;7.086;2022-08-07T00:05:47;101342.97;;;14.57;72.75
32131;BME280;18639;50.716;7.086;2022-08-07T00:08:12;101352.44;;;14.58;73.23
32131;BME280;18639;50.716;7.086;2022-08-07T00:10:37;101353.25;;;14.59;72.60
32131;BME280;18639;50.716;7.086;2022-08-07T00:13:04;101346.50;;;14.56;72.71
32131;BME280;18639;50.716;7.086;2022-08-07T00:15:30;101345.59;;;14.57;72.50
32131;BME280;18639;50.716;7.086;2022-08-07T00:17:56;101348.38;;;14.54;73.28
32131;BME280;18639;50.716;7.086;2022-08-07T00:20:22;101343.16;;;14.54;72.43
32131;BME280;18639;50.716;7.086;2022-08-07T00:22:48;101340.94;;;14.48;72.31
32131;BME280;18639;50.716;7.086;2022-08-07T00:25:13;101309.03;;;14.32;72.24
32131;BME280;18639;50.716;7.086;2022-08-07T00:27:38;101305.50;;;14.33;72.75
32131;BME280;18639;50.716;7.086;2022-08-07T00:30:04;101329.09;;;14.44;73.07
32131;BME280;18639;50.716;7.086;2022-08-07T00:32:29;101307.97;;;14.22;73.04
32131;BME280;18639;50.716;7.086;2022-08-07T00:34:55;101333.09;;;14.36;73.24
32131;BME280;18639;50.716;7.086;2022-08-07T00:37:20;101323.91;;;14.30;73.07
32131;BME280;18639;50.716;7.086;2022-08-07T00:39:45;101292.97;;;14.13;73.66
32131;BME280;18639;50.716;7.086;2022-08-07T00:42:11;101320.78;;;14.25;74.14
32131;BME280;18639;50.716;7.086;2022-08-07T00:44:36;101310.69;;;14.20;74.31
32131;BME280;18639;50.716;7.086;2022-08-07T00:47:03;101317.44;;;14.23;74.36
32131;BME280;18639;50.716;7.086;2022-08-07T00:49:29;101310.78;;;14.19;74.29
32131;BME280;18639;50.716;7.086;2022-08-07T00:51:54;101297.25;;;14.14;74.52
32131;BME280;18639;50.716;7.086;2022-08-07T00:54:19;101295.56;;;14.13;74.73
32131;BME280;18639;50.716;7.086;2022-08-07T00:56:45;101307.09;;;14.09;74.34
32131;BME280;18639;50.716;7.086;2022-08-07T00:59:10;101293.56;;;14.04;74.80
32131;BME280;18639;50.716;7.086;2022-08-07T01:01:35;101290.44;;;13.99;74.44
32131;BME280;18639;50.716;7.086;2022-08-07T01:04:04;101302.75;;;14.09;74.75
32131;BME280;18639;50.716;7.086;2022-08-07T01:06:31;101298.31;;;13.97;74.85
32131;BME280;18639;50.716;7.086;2022-08-07T01:08:57;101289.88;;;13.94;75.06
32131;BME280;18639;50.716;7.086;2022-08-07T01:11:23;101304.53;;;13.95;75.41
32131;BME280;18639;50.716;7.086;2022-08-07T01:13:49;101312.84;;;14.00;75.40
32131;BME280;18639;50.716;7.086;2022-08-07T01:16:14;101280.78;;;13.86;75.75
32131;BME280;18639;50.716;7.086;2022-08-07T01:18:40;101306.19;;;13.96;75.98
32131;BME280;18639;50.716;7.086;2022-08-07T01:21:09;101297.69;;;13.94;76.14
32131;BME280;18639;50.716;7.086;2022-08-07T01:23:36;101303.06;;;13.90;76.21
32131;BME280;18639;50.716;7.086;2022-08-07T01:26:02;101298.91;;;13.88;76.22
32131;BME280;18639;50.716;7.086;2022-08-07T01:28:28;101278.41;;;13.69;76.38
32131;BME280;18639;50.716;7.086;2022-08-07T01:30:54;101301.97;;;13.80;76.70
32131;BME280;18639;50.716;7.086;2022-08-07T01:33:21;101301.88;;;13.82;77.05
32131;BME280;18639;50.716;7.086;2022-08-07T01:35:47;101296.50;;;13.71;76.58
32131;BME280;18639;50.716;7.086;2022-08-07T01:38:12;101284.91;;;13.62;76.84
32131;BME280;18639;50.716;7.086;2022-08-07T01:40:39;101293.91;;;13.71;77.02
32131;BME280;18639;50.716;7.086;2022-08-07T01:43:05;101285.66;;;13.64;77.26
32131;BME280;18639;50.716;7.086;2022-08-07T01:45:31;101284.91;;;13.62;77.80
32131;BME280;18639;50.716;7.086;2022-08-07T01:47:58;101293.75;;;13.60;77.43
32131;BME280;18639;50.716;7.086;2022-08-07T01:50:24;101296.44;;;13.58;77.52
32131;BME280;18639;50.716;7.086;2022-08-07T01:52:53;101273.84;;;13.46;77.72
32131;BME280;18639;50.716;7.086;2022-08-07T01:55:24;101287.44;;;13.49;78.01
32131;BME280;18639;50.716;7.086;2022-08-07T01:57:51;101302.94;;;13.51;77.80
32131;BME280;18639;50.716;7.086;2022-08-07T02:00:19;101266.78;;;13.34;77.94
32131;BME280;18639;50.716;7.086;2022-08-07T02:02:51;101278.09;;;13.33;78.15
32131;BME280;18639;50.716;7.086;2022-08-07T02:05:41;101240.63;;;13.08;78.69
32131;BME280;18639;50.716;7.086;2022-08-07T02:08:09;101293.84;;;13.44;78.50
32131;BME280;18639;50.716;7.086;2022-08-07T02:10:38;101295.53;;;13.45;79.03
32131;BME280;18639;50.716;7.086;2022-08-07T02:13:04;101289.22;;;13.35;78.90
32131;BME280;18639;50.716;7.086;2022-08-07T02:15:31;101290.50;;;13.42;79.19
32131;BME280;18639;50.716;7.086;2022-08-07T02:17:58;101278.09;;;13.33;78.44
32131;BME280;18639;50.716;7.086;2022-08-07T02:20:24;101280.50;;;13.22;78.89
32131;BME280;18639;50.716;7.086;2022-08-07T02:22:52;101276.44;;;13.18;78.68
32131;BME280;18639;50.716;7.086;2022-08-07T02:25:19;101284.56;;;13.26;78.67
32131;BME280;18639;50.716;7.086;2022-08-07T02:27:47;101276.06;;;13.24;79.18
32131;BME280;18639;50.716;7.086;2022-08-07T02:30:13;101292.84;;;13.32;79.13
32131;BME280;18639;50.716;7.086;2022-08-07T02:32:40;101288.69;;;13.30;79.00
32131;BME280;18639;50.716;7.086;2022-08-07T02:35:06;101286.44;;;13.24;79.48
32131;BME280;18639;50.716;7.086;2022-08-07T02:37:34;101293.31;;;13.25;79.45
32131;BME280;18639;50.716;7.086;2022-08-07T02:40:00;101258.97;;;12.91;79.67
32131;BME280;18639;50.716;7.086;2022-08-07T02:42:29;101302.19;;;13.21;80.10
32131;BME280;18639;50.716;7.086;2022-08-07T02:44:55;101297.66;;;13.24;80.24
32131;BME280;18639;50.716;7.086;2022-08-07T02:47:21;101296.84;;;13.24;79.55
32131;BME280;18639;50.716;7.086;2022-08-07T02:49:46;101279.81;;;13.04;79.54
32131;BME280;18639;50.716;7.086;2022-08-07T02:52:15;101299.25;;;13.13;80.06
32131;BME280;18639;50.716;7.086;2022-08-07T02:54:42;101289.34;;;13.03;80.36
32131;BME280;18639;50.716;7.086;2022-08-07T02:57:11;101290.38;;;13.01;80.53
32131;BME280;18639;50.716;7.086;2022-08-07T02:59:40;101289.75;;;12.97;80.83
32131;BME280;18639;50.716;7.086;2022-08-07T03:02:11;101288.22;;;12.93;81.24
32131;BME280;18639;50.716;7.086;2022-08-07T03:04:37;101258.84;;;12.79;81.50
32131;BME280;18639;50.716;7.086;2022-08-07T03:07:03;101274.25;;;12.82;81.45
32131;BME280;18639;50.716;7.086;2022-08-07T03:09:29;101254.03;;;12.73;81.75
32131;BME280;18639;50.716;7.086;2022-08-07T03:11:54;101263.41;;;12.75;81.60
32131;BME280;18639;50.716;7.086;2022-08-07T03:14:20;101270.81;;;12.81;82.18
32131;BME280;18639;50.716;7.086;2022-08-07T03:16:46;101289.69;;;12.83;82.40
32131;BME280;18639;50.716;7.086;2022-08-07T03:19:11;101285.44;;;12.82;81.94
32131;BME280;18639;50.716;7.086;2022-08-07T03:21:37;101270.25;;;12.76;82.80
32131;BME280;18639;50.716;7.086;2022-08-07T03:24:03;101282.84;;;12.82;82.01
32131;BME280;18639;50.716;7.086;2022-08-07T03:26:31;101286.38;;;12.81;82.60
32131;BME280;18639;50.716;7.086;2022-08-07T03:28:59;101289.97;;;12.79;82.33
32131;BME280;18639;50.716;7.086;2022-08-07T03:31:27;101271.03;;;12.62;82.40
32131;BME280;18639;50.716;7.086;2022-08-07T03:33:55;101280.78;;;12.73;82.82
32131;BME280;18639;50.716;7.086;2022-08-07T03:36:23;101235.63;;;12.33;82.84
32131;BME280;18639;50.716;7.086;2022-08-07T03:38:51;101267.97;;;12.56;82.81
32131;BME280;18639;50.716;7.086;2022-08-07T03:41:17;101273.72;;;12.61;83.03
32131;BME280;18639;50.716;7.086;2022-08-07T03:43:43;101279.66;;;12.63;83.25
32131;BME280;18639;50.716;7.086;2022-08-07T03:46:09;101267.03;;;12.57;83.07
32131;BME280;18639;50.716;7.086;2022-08-07T03:48:35;101259.63;;;12.51;82.97
32131;BME280;18639;50.716;7.086;2022-08-07T03:51:02;101261.78;;;12.58;82.89
32131;BME280;18639;50.716;7.086;2022-08-07T03:53:27;101284.50;;;12.69;83.10
32131;BME280;18639;50.716;7.086;2022-08-07T03:55:54;101270.78;;;12.67;83.23
32131;BME280;18639;50.716;7.086;2022-08-07T03:58:21;101275.78;;;12.70;82.77
32131;BME280;18639;50.716;7.086;2022-08-07T04:00:48;101283.38;;;12.73;82.66
32131;BME280;18639;50.716;7.086;2022-08-07T04:03:15;101264.44;;;12.57;83.09
32131;BME280;18639;50.716;7.086;2022-08-07T04:05:40;101278.09;;;12.60;83.32
32131;BME280;18639;50.716;7.086;2022-08-07T04:08:08;101277.06;;;12.63;83.44
32131;BME280;18639;50.716;7.086;2022-08-07T04:10:34;101273.91;;;12.58;82.76
32131;BME280;18639;50.716;7.086;2022-08-07T04:12:59;101266.41;;;12.53;83.53
32131;BME280;18639;50.716;7.086;2022-08-07T04:15:25;101283.63;;;12.54;83.48
32131;BME280;18639;50.716;7.086;2022-08-07T04:17:51;101282.38;;;12.46;83.71
32131;BME280;18639;50.716;7.086;2022-08-07T04:20:16;101259.66;;;12.35;83.91
32131;BME280;18639;50.716;7.086;2022-08-07T04:22:43;101282.84;;;12.38;84.31
32131;BME280;18639;50.716;7.086;2022-08-07T04:25:09;101237.34;;;12.03;84.73
32131;BME280;18639;50.716;7.086;2022-08-07T04:27:35;101299.97;;;12.41;84.60
32131;BME280;18639;50.716;7.086;2022-08-07T04:30:00;101279.00;;;12.30;84.91
32131;BME280;18639;50.716;7.086;2022-08-07T04:32:26;101279.50;;;12.36;84.98
32131;BME280;18639;50.716;7.086;2022-08-07T04:34:53;101289.59;;;12.41;84.86
32131;BME280;18639;50.716;7.086;2022-08-07T04:37:18;101281.25;;;12.36;85.36
32131;BME280;18639;50.716;7.086;2022-08-07T04:39:44;101266.03;;;12.30;85.37
32131;BME280;18639;50.716;7.086;2022-08-07T04:42:10;101277.91;;;12.34;85.89
32131;BME280;18639;50.716;7.086;2022-08-07T04:44:36;101296.09;;;12.48;85.60
32131;BME280;18639;50.716;7.086;2022-08-07T04:47:08;101292.41;;;12.52;85.96
32131;BME280;18639;50.716;7.086;2022-08-07T04:49:45;101301.66;;;12.56;85.93
32131;BME280;18639;50.716;7.086;2022-08-07T04:55:05;101310.78;;;12.63;85.59
32131;BME280;18639;50.716;7.086;2022-08-07T04:57:43;101313.78;;;12.71;85.47
32131;BME280;18639;50.716;7.086;2022-08-07T05:00:15;101315.06;;;12.78;85.23
32131;BME280;18639;50.716;7.086;2022-08-07T05:02:57;101316.41;;;12.85;84.82
32131;BME280;18639;50.716;7.086;2022-08-07T05:05:43;101310.38;;;12.85;85.06
32131;BME280;18639;50.716;7.086;2022-08-07T05:10:44;101314.00;;;12.96;85.61
32131;BME280;18639;50.716;7.086;2022-08-07T05:13:18;101311.41;;;12.96;85.73
32131;BME280;18639;50.716;7.086;2022-08-07T05:15:49;101308.81;;;12.96;86.23
32131;BME280;18639;50.716;7.086;2022-08-07T05:18:21;101316.53;;;12.98;86.38
32131;BME280;18639;50.716;7.086;2022-08-07T05:20:50;101319.56;;;13.04;86.36
32131;BME280;18639;50.716;7.086;2022-08-07T05:23:22;101322.91;;;13.06;86.68
32131;BME280;18639;50.716;7.086;2022-08-07T05:25:51;101312.91;;;13.00;87.08
32131;BME280;18639;50.716;7.086;2022-08-07T05:28:18;101323.44;;;13.13;86.98
32131;BME280;18639;50.716;7.086;2022-08-07T05:30:44;101326.66;;;13.17;86.51
32131;BME280;18639;50.716;7.086;2022-08-07T05:33:12;101328.16;;;13.21;86.48
32131;BME280;18639;50.716;7.086;2022-08-07T05:35:39;101314.44;;;13.19;86.76
32131;BME280;18639;50.716;7.086;2022-08-07T05:38:05;101323.34;;;13.29;87.14
32131;BME280;18639;50.716;7.086;2022-08-07T05:40:36;101324.09;;;13.45;86.67
32131;BME280;18639;50.716;7.086;2022-08-07T05:43:02;101314.13;;;13.52;86.10
32131;BME280;18639;50.716;7.086;2022-08-07T05:45:28;101327.84;;;13.68;84.30
32131;BME280;18639;50.716;7.086;2022-08-07T05:47:54;101324.50;;;13.80;83.44
32131;BME280;18639;50.716;7.086;2022-08-07T05:50:20;101329.97;;;13.89;82.96
32131;BME280;18639;50.716;7.086;2022-08-07T05:52:46;101320.31;;;13.91;82.88
32131;BME280;18639;50.716;7.086;2022-08-07T05:55:12;101341.34;;;14.01;83.02
32131;BME280;18639;50.716;7.086;2022-08-07T05:57:39;101333.25;;;14.06;84.32
32131;BME280;18639;50.716;7.086;2022-08-07T06:00:06;101334.56;;;14.13;84.45
32131;BME280;18639;50.716;7.086;2022-08-07T06:02:34;101332.50;;;14.18;84.74
32131;BME280;18639;50.716;7.086;2022-08-07T06:05:08;101333.66;;;14.26;83.26
32131;BME280;18639;50.716;7.086;2022-08-07T06:07:34;101330.78;;;14.31;83.97
32131;BME280;18639;50.716;7.086;2022-08-07T06:10:00;101325.38;;;14.34;83.98
32131;BME280;18639;50.716;7.086;2022-08-07T06:12:27;101322.44;;;14.40;84.28
32131;BME280;18639;50.716;7.086;2022-08-07T06:14:53;101264.22;;;14.02;84.54
32131;BME280;18639;50.716;7.086;2022-08-07T06:17:19;101324.63;;;14.46;84.54
32131;BME280;18639;50.716;7.086;2022-08-07T06:19:46;101311.41;;;14.49;84.22
32131;BME280;18639;50.716;7.086;2022-08-07T06:22:12;101336.69;;;14.74;83.76
32131;BME280;18639;50.716;7.086;2022-08-07T06:24:38;101338.13;;;14.78;83.88
32131;BME280;18639;50.716;7.086;2022-08-07T06:27:04;101349.38;;;14.91;84.06
32131;BME280;18639;50.716;7.086;2022-08-07T06:29:29;101345.44;;;14.98;83.59
32131;BME280;18639;50.716;7.086;2022-08-07T06:31:55;101339.00;;;15.04;83.33
32131;BME280;18639;50.716;7.086;2022-08-07T06:34:24;101341.91;;;15.12;79.26
32131;BME280;18639;50.716;7.086;2022-08-07T06:36:49;101331.41;;;15.26;78.36
32131;BME280;18639;50.716;7.086;2022-08-07T06:39:15;101333.06;;;15.27;73.73
32131;BME280;18639;50.716;7.086;2022-08-07T06:42:06;101327.97;;;15.38;72.82
32131;BME280;18639;50.716;7.086;2022-08-07T06:44:33;101332.66;;;15.58;72.36
32131;BME280;18639;50.716;7.086;2022-08-07T06:46:59;101318.75;;;15.71;72.42
32131;BME280;18639;50.716;7.086;2022-08-07T06:49:25;101322.16;;;15.84;72.02
32131;BME280;18639;50.716;7.086;2022-08-07T06:51:51;101318.91;;;15.93;72.88
32131;BME280;18639;50.716;7.086;2022-08-07T06:54:18;101297.72;;;15.97;72.09
32131;BME280;18639;50.716;7.086;2022-08-07T06:56:44;101296.50;;;16.14;68.68
32131;BME280;18639;50.716;7.086;2022-08-07T06:59:17;101309.19;;;16.42;66.60
32131;BME280;18639;50.716;7.086;2022-08-07T07:01:44;101307.53;;;16.41;67.50
32131;BME280;18639;50.716;7.086;2022-08-07T07:04:10;101284.50;;;16.35;67.77
32131;BME280;18639;50.716;7.086;2022-08-07T07:06:35;101309.22;;;16.66;67.35
32131;BME280;18639;50.716;7.086;2022-08-07T07:09:27;101298.78;;;16.89;65.79
32131;BME280;18639;50.716;7.086;2022-08-07T07:11:56;101306.78;;;17.20;63.69
32131;BME280;18639;50.716;7.086;2022-08-07T07:14:23;101312.97;;;17.42;62.27
32131;BME280;18639;50.716;7.086;2022-08-07T07:16:50;101307.53;;;17.45;63.42
32131;BME280;18639;50.716;7.086;2022-08-07T07:19:21;101303.72;;;17.71;63.72
32131;BME280;18639;50.716;7.086;2022-08-07T07:21:48;101301.31;;;17.79;62.60
32131;BME280;18639;50.716;7.086;2022-08-07T07:24:16;101300.13;;;17.94;60.72
32131;BME280;18639;50.716;7.086;2022-08-07T07:26:43;101290.09;;;18.11;58.18
32131;BME280;18639;50.716;7.086;2022-08-07T07:29:11;101287.09;;;18.15;57.24
32131;BME280;18639;50.716;7.086;2022-08-07T07:31:45;101296.38;;;18.40;56.76
32131;BME280;18639;50.716;7.086;2022-08-07T07:34:21;101303.78;;;18.67;58.15
32131;BME280;18639;50.716;7.086;2022-08-07T07:36:48;101302.56;;;18.91;56.56
32131;BME280;18639;50.716;7.086;2022-08-07T07:39:15;101285.13;;;19.02;55.81
32131;BME280;18639;50.716;7.086;2022-08-07T07:41:44;101283.63;;;19.09;54.83
32131;BME280;18639;50.716;7.086;2022-08-07T07:44:12;101267.66;;;19.12;54.31
32131;BME280;18639;50.716;7.086;2022-08-07T07:46:38;101280.72;;;19.32;53.10
32131;BME280;18639;50.716;7.086;2022-08-07T07:49:04;101285.44;;;19.39;53.96
32131;BME280;18639;50.716;7.086;2022-08-07T07:51:33;101272.50;;;19.47;53.32
32131;BME280;18639;50.716;7.086;2022-08-07T07:54:00;101268.09;;;19.47;52.81
32131;BME280;18639;50.716;7.086;2022-08-07T07:56:28;101286.66;;;19.74;54.38
32131;BME280;18639;50.716;7.086;2022-08-07T07:58:57;101277.44;;;19.90;51.16
32131;BME280;18639;50.716;7.086;2022-08-07T08:01:24;101269.28;;;19.93;52.13
32131;BME280;18639;50.716;7.086;2022-08-07T08:03:52;101263.78;;;19.96;52.29
32131;BME280;18639;50.716;7.086;2022-08-07T08:06:19;101267.50;;;20.12;52.01
32131;BME280;18639;50.716;7.086;2022-08-07T08:08:48;101262.97;;;20.24;53.31
32131;BME280;18639;50.716;7.086;2022-08-07T08:11:13;101270.81;;;20.63;53.25
32131;BME280;18639;50.716;7.086;2022-08-07T08:13:45;101270.13;;;20.61;49.33
32131;BME280;18639;50.716;7.086;2022-08-07T08:16:13;101259.16;;;20.75;50.00
32131;BME280;18639;50.716;7.086;2022-08-07T08:18:42;101272.78;;;21.07;51.44
32131;BME280;18639;50.716;7.086;2022-08-07T08:21:08;101255.69;;;21.30;50.81
32131;BME280;18639;50.716;7.086;2022-08-07T08:23:54;101252.81;;;21.51;46.82
32131;BME280;18639;50.716;7.086;2022-08-07T08:26:38;101262.94;;;21.46;46.90
32131;BME280;18639;50.716;7.086;2022-08-07T08:29:25;101256.66;;;21.57;46.60
32131;BME280;18639;50.716;7.086;2022-08-07T08:31:52;101246.38;;;21.63;46.31
32131;BME280;18639;50.716;7.086;2022-08-07T08:34:18;101239.44;;;21.80;48.45
32131;BME280;18639;50.716;7.086;2022-08-07T08:36:46;101232.75;;;21.95;46.38
32131;BME280;18639;50.716;7.086;2022-08-07T08:39:13;101255.22;;;22.25;46.00
32131;BME280;18639;50.716;7.086;2022-08-07T08:41:47;101248.13;;;22.43;46.90
32131;BME280;18639;50.716;7.086;2022-08-07T08:44:33;101232.03;;;22.54;46.21
32131;BME280;18639;50.716;7.086;2022-08-07T08:47:07;101237.03;;;22.83;42.12
32131;BME280;18639;50.716;7.086;2022-08-07T08:50:00;101224.66;;;22.76;42.92
32131;BME280;18639;50.716;7.086;2022-08-07T08:52:32;101226.63;;;22.82;42.32
32131;BME280;18639;50.716;7.086;2022-08-07T08:58:05;101234.47;;;22.99;41.71
32131;BME280;18639;50.716;7.086;2022-08-07T09:00:35;101222.06;;;23.18;42.32
32131;BME280;18639;50.716;7.086;2022-08-07T09:03:28;101227.97;;;23.54;42.77
32131;BME280;18639;50.716;7.086;2022-08-07T09:06:04;101223.22;;;23.89;41.77
32131;BME280;18639;50.716;7.086;2022-08-07T09:08:40;101220.28;;;24.17;39.49
32131;BME280;18639;50.716;7.086;2022-08-07T09:11:19;101228.22;;;24.57;40.57
32131;BME280;18639;50.716;7.086;2022-08-07T09:14:12;101215.56;;;25.00;39.58
32131;BME280;18639;50.716;7.086;2022-08-07T09:27:43;101204.13;;;26.96;34.56
32131;BME280;18639;50.716;7.086;2022-08-07T09:30:10;101196.34;;;27.31;34.77
32131;BME280;18639;50.716;7.086;2022-08-07T09:32:58;101201.44;;;27.83;32.25
32131;BME280;18639;50.716;7.086;2022-08-07T09:35:45;101198.81;;;28.66;29.10
32131;BME280;18639;50.716;7.086;2022-08-07T09:41:42;101197.00;;;29.75;28.50
32131;BME280;18639;50.716;7.086;2022-08-07T09:44:29;101187.97;;;30.35;28.25
32131;BME280;18639;50.716;7.086;2022-08-07T09:47:20;101184.06;;;30.38;26.51
32131;BME280;18639;50.716;7.086;2022-08-07T09:49:56;101183.13;;;31.03;25.84
32131;BME280;18639;50.716;7.086;2022-08-07T09:52:41;101172.69;;;31.26;26.93
32131;BME280;18639;50.716;7.086;2022-08-07T09:58:13;101174.69;;;31.38;25.03
32131;BME280;18639;50.716;7.086;2022-08-07T10:01:12;101173.81;;;31.12;26.58
32131;BME280;18639;50.716;7.086;2022-08-07T10:04:13;101175.22;;;31.15;26.28
32131;BME280;18639;50.716;7.086;2022-08-07T10:12:11;101156.78;;;31.76;24.80
32131;BME280;18639;50.716;7.086;2022-08-07T10:20:30;101154.47;;;32.04;25.27
32131;BME280;18639;50.716;7.086;2022-08-07T10:23:02;101149.09;;;31.61;25.55
32131;BME280;18639;50.716;7.086;2022-08-07T10:25:51;101150.84;;;30.98;25.00
32131;BME280;18639;50.716;7.086;2022-08-07T10:39:07;101129.16;;;31.82;25.24
32131;BME280;18639;50.716;7.086;2022-08-07T10:41:39;101133.97;;;31.98;24.14
32131;BME280;18639;50.716;7.086;2022-08-07T10:44:19;101120.00;;;31.09;23.56
32131;BME280;18639;50.716;7.086;2022-08-07T10:46:57;101123.06;;;31.44;23.73
32131;BME280;18639;50.716;7.086;2022-08-07T10:49:43;101131.28;;;31.11;22.76
32131;BME280;18639;50.716;7.086;2022-08-07T10:52:25;101095.28;;;30.04;24.91
32131;BME280;18639;50.716;7.086;2022-08-07T10:55:13;101125.88;;;29.76;26.05
32131;BME280;18639;50.716;7.086;2022-08-07T10:58:02;101135.00;;;28.38;25.67
32131;BME280;18639;50.716;7.086;2022-08-07T11:00:33;101117.94;;;28.20;26.89
32131;BME280;18639;50.716;7.086;2022-08-07T11:03:11;101125.91;;;27.49;27.45
32131;BME280;18639;50.716;7.086;2022-08-07T11:05:51;101126.34;;;26.81;28.37
32131;BME280;18639;50.716;7.086;2022-08-07T11:11:08;101116.56;;;26.67;29.37
32131;BME280;18639;50.716;7.086;2022-08-07T11:16:57;101073.06;;;25.65;29.85
32131;BME280;18639;50.716;7.086;2022-08-07T11:19:09;101110.75;;;25.90;30.70
32131;BME280;18639;50.716;7.086;2022-08-07T11:26:40;101104.34;;;25.39;31.55
32131;BME280;18639;50.716;7.086;2022-08-07T11:29:13;101092.88;;;25.24;32.66
32131;BME280;18639;50.716;7.086;2022-08-07T11:34:18;101090.19;;;25.32;31.73
32131;BME280;18639;50.716;7.086;2022-08-07T11:39:50;101086.94;;;25.44;32.18
32131;BME280;18639;50.716;7.086;2022-08-07T11:42:32;101087.31;;;25.41;32.03
32131;BME280;18639;50.716;7.086;2022-08-07T11:45:14;101071.84;;;25.30;32.33
32131;BME280;18639;50.716;7.086;2022-08-07T11:47:56;101078.53;;;25.18;32.65
32131;BME280;18639;50.716;7.086;2022-08-07T12:08:21;101048.00;;;24.77;33.82
32131;BME280;18639;50.716;7.086;2022-08-07T12:13:28;101055.88;;;24.85;32.73
32131;BME280;18639;50.716;7.086;2022-08-07T12:16:04;101051.78;;;24.82;33.36
32131;BME280;18639;50.716;7.086;2022-08-07T12:18:48;101052.94;;;24.88;31.71
32131;BME280;18639;50.716;7.086;2022-08-07T12:21:36;101057.91;;;24.83;33.48
32131;BME280;18639;50.716;7.086;2022-08-07T12:24:18;101059.03;;;24.49;32.18
32131;BME280;18639;50.716;7.086;2022-08-07T12:26:52;101054.44;;;24.43;32.73
32131;BME280;18639;50.716;7.086;2022-08-07T12:29:49;101052.41;;;24.53;33.93
32131;BME280;18639;50.716;7.086;2022-08-07T12:35:08;101040.47;;;24.65;32.80
32131;BME280;18639;50.716;7.086;2022-08-07T12:37:36;101051.25;;;24.56;33.09
32131;BME280;18639;50.716;7.086;2022-08-07T12:40:03;101048.09;;;24.60;33.21
32131;BME280;18639;50.716;7.086;2022-08-07T12:42:31;101042.13;;;24.66;33.53
32131;BME280;18639;50.716;7.086;2022-08-07T12:45:02;101048.75;;;24.62;33.75
32131;BME280;18639;50.716;7.086;2022-08-07T12:47:49;101044.38;;;24.78;32.83
32131;BME280;18639;50.716;7.086;2022-08-07T12:50:29;101047.03;;;24.78;33.22
32131;BME280;18639;50.716;7.086;2022-08-07T12:55:46;101050.50;;;24.78;32.76
32131;BME280;18639;50.716;7.086;2022-08-07T12:58:15;101043.56;;;24.77;32.65
32131;BME280;18639;50.716;7.086;2022-08-07T13:01:01;101021.34;;;24.55;32.88
32131;BME280;18639;50.716;7.086;2022-08-07T13:06:45;101029.22;;;24.63;33.66
32131;BME280;18639;50.716;7.086;2022-08-07T13:09:30;101017.88;;;24.55;33.58
32131;BME280;18639;50.716;7.086;2022-08-07T13:12:16;101021.06;;;24.50;33.22
32131;BME280;18639;50.716;7.086;2022-08-07T13:17:38;100996.66;;;24.40;33.42
32131;BME280;18639;50.716;7.086;2022-08-07T13:22:38;100987.84;;;24.48;34.01
32131;BME280;18639;50.716;7.086;2022-08-07T13:25:13;101004.94;;;24.68;33.30
32131;BME280;18639;50.716;7.086;2022-08-07T13:28:43;101003.47;;;24.65;33.49
32131;BME280;18639;50.716;7.086;2022-08-07T13:31:23;100999.31;;;24.63;33.44
32131;BME280;18639;50.716;7.086;2022-08-07T13:33:57;101000.88;;;24.80;32.99
32131;BME280;18639;50.716;7.086;2022-08-07T13:36:31;101001.47;;;24.67;32.86
32131;BME280;18639;50.716;7.086;2022-08-07T13:42:01;100998.91;;;24.82;33.42
32131;BME280;18639;50.716;7.086;2022-08-07T13:44:32;100983.59;;;24.69;33.73
32131;BME280;18639;50.716;7.086;2022-08-07T13:46:59;100984.56;;;24.77;32.83
32131;BME280;18639;50.716;7.086;2022-08-07T13:49:27;100971.38;;;24.68;32.47
32131;BME280;18639;50.716;7.086;2022-08-07T13:51:56;100972.09;;;24.62;32.75
32131;BME280;18639;50.716;7.086;2022-08-07T13:54:30;100960.56;;;24.55;33.83
32131;BME280;18639;50.716;7.086;2022-08-07T13:56:56;100983.81;;;24.60;33.07
32131;BME280;18639;50.716;7.086;2022-08-07T13:59:26;100963.22;;;24.55;33.81
32131;BME280;18639;50.716;7.086;2022-08-07T14:02:03;100969.63;;;24.61;33.27
32131;BME280;18639;50.716;7.086;2022-08-07T14:04:53;100963.66;;;24.59;32.88
32131;BME280;18639;50.716;7.086;2022-08-07T14:07:25;100962.81;;;24.66;34.51
32131;BME280;18639;50.716;7.086;2022-08-07T14:09:54;100967.94;;;24.68;33.45
32131;BME280;18639;50.716;7.086;2022-08-07T14:12:24;100963.13;;;24.63;33.25
32131;BME280;18639;50.716;7.086;2022-08-07T14:14:55;100929.13;;;24.38;33.38
32131;BME280;18639;50.716;7.086;2022-08-07T14:17:24;100946.00;;;24.59;34.41
32131;BME280;18639;50.716;7.086;2022-08-07T14:20:05;100938.59;;;24.78;33.11
32131;BME280;18639;50.716;7.086;2022-08-07T14:22:33;100948.19;;;24.79;33.66
32131;BME280;18639;50.716;7.086;2022-08-07T14:25:02;100957.56;;;24.89;33.04
32131;BME280;18639;50.716;7.086;2022-08-07T14:27:44;100951.84;;;24.78;33.88
32131;BME280;18639;50.716;7.086;2022-08-07T14:30:11;100940.66;;;24.67;33.40
32131;BME280;18639;50.716;7.086;2022-08-07T14:32:54;100938.97;;;24.52;33.73
32131;BME280;18639;50.716;7.086;2022-08-07T14:35:27;100934.72;;;24.65;33.57
32131;BME280;18639;50.716;7.086;2022-08-07T14:37:57;100932.75;;;24.67;33.41
32131;BME280;18639;50.716;7.086;2022-08-07T14:40:25;100938.03;;;24.67;33.81
32131;BME280;18639;50.716;7.086;2022-08-07T14:42:59;100932.06;;;24.65;33.05
32131;BME280;18639;50.716;7.086;2022-08-07T14:45:28;100918.56;;;24.60;33.47
32131;BME280;18639;50.716;7.086;2022-08-07T14:47:55;100908.69;;;24.54;33.60
32131;BME280;18639;50.716;7.086;2022-08-07T14:50:22;100897.94;;;24.56;33.61